Time;durP1;ratioP1;P1;durP2;ratioP2;P2;SDS_P1;SDS_P2;PMS_P1;PMS_P2;Temp;Humidity;BMP_temperature;BMP_pressure;BME280_temperature;BME280_humidity;BME280_pressure;Samples;Min_cycle;Max_cycle;Signal;HPM_P1;HPM_P2
2022/08/17 00:01:37;;;;;;;5.13;4.47;;;;;;;;;;10401334;28;20836;-75
2022/08/17 00:06:38;;;;;;;5.53;4.50;;;;;;;;;;10408971;28;20660;-73
2022/08/17 00:11:42;;;;;;;8.33;4.13;;;;;;;;;;10408423;28;20308;-73
2022/08/17 00:16:44;;;;;;;4.60;4.10;;;;;;;;;;10410632;28;20237;-76
2022/08/17 00:21:46;;;;;;;4.10;3.80;;;;;;;;;;10408715;28;20257;-73
2022/08/17 00:26:47;;;;;;;5.73;4.10;;;;;;;;;;10408347;28;20221;-73
2022/08/17 00:31:49;;;;;;;6.20;4.47;;;;;;;;;;10400360;28;20906;-72
2022/08/17 00:36:50;;;;;;;5.00;4.17;;;;;;;;;;10408557;28;20225;-74
2022/08/17 00:41:51;;;;;;;5.63;4.07;;;;;;;;;;10406673;28;20220;-73
2022/08/17 00:46:52;;;;;;;5.37;4.10;;;;;;;;;;10404404;28;20588;-71
2022/08/17 00:51:56;;;;;;;4.37;3.97;;;;;;;;;;10407738;28;20650;-72
2022/08/17 00:56:59;;;;;;;3.97;3.67;;;;;;;;;;10404453;28;20274;-73
2022/08/17 01:02:03;;;;;;;4.50;4.00;;;;;;;;;;10415588;28;20279;-73
2022/08/17 01:07:05;;;;;;;4.57;3.90;;;;;;;;;;10402207;28;20638;-72
2022/08/17 01:12:11;;;;;;;5.13;4.17;;;;;;;;;;10391795;28;20295;-72
2022/08/17 01:17:13;;;;;;;5.67;4.07;;;;;;;;;;10395968;28;20232;-72
2022/08/17 01:22:23;;;;;;;5.77;3.93;;;;;;;;;;10393235;28;20233;-75
2022/08/17 01:27:28;;;;;;;4.57;4.07;;;;;;;;;;10390857;28;20369;-74
2022/08/17 01:32:29;;;;;;;6.50;4.47;;;;;;;;;;10399466;28;20223;-73
2022/08/17 01:37:36;;;;;;;5.67;3.43;;;;;;;;;;10393588;28;20760;-72
2022/08/17 01:42:57;;;;;;;4.17;3.87;;;;;;;;;;10394416;28;20235;-72
2022/08/17 01:48:01;;;;;;;4.43;4.00;;;;;;;;;;10401641;28;20259;-73
2022/08/17 01:53:03;;;;;;;4.00;3.67;;;;;;;;;;10411397;28;20314;-72
2022/08/17 01:58:08;;;;;;;4.50;4.20;;;;;;;;;;10410241;28;20233;-73
2022/08/17 02:03:09;;;;;;;5.63;4.23;;;;;;;;;;10398119;28;20217;-73
2022/08/17 02:08:11;;;;;;;4.23;3.77;;;;;;;;;;10410304;28;20212;-75
2022/08/17 02:13:12;;;;;;;4.40;4.00;;;;;;;;;;10411533;28;20941;-75
2022/08/17 02:18:14;;;;;;;5.17;4.00;;;;;;;;;;10411393;28;20655;-74
2022/08/17 02:23:15;;;;;;;4.70;4.10;;;;;;;;;;10411744;28;20229;-76
2022/08/17 02:28:17;;;;;;;4.77;3.87;;;;;;;;;;10413204;28;20200;-74
2022/08/17 02:33:18;;;;;;;4.73;4.27;;;;;;;;;;10398171;28;20221;-71
2022/08/17 02:38:25;;;;;;;4.23;3.80;;;;;;;;;;10393104;28;20771;-72
2022/08/17 02:43:27;;;;;;;3.93;3.60;;;;;;;;;;10395791;28;20228;-72
2022/08/17 02:48:28;;;;;;;4.77;3.53;;;;;;;;;;10411355;28;20216;-72
2022/08/17 02:53:29;;;;;;;5.37;4.23;;;;;;;;;;10412079;28;20266;-71
2022/08/17 02:58:33;;;;;;;4.33;3.97;;;;;;;;;;10411497;28;20227;-74
2022/08/17 03:03:35;;;;;;;7.07;4.53;;;;;;;;;;10393455;28;20290;-73
2022/08/17 03:08:40;;;;;;;6.13;4.30;;;;;;;;;;10418387;28;20213;-72
2022/08/17 03:13:41;;;;;;;6.20;4.20;;;;;;;;;;10410998;28;20221;-71
2022/08/17 03:18:45;;;;;;;5.87;4.20;;;;;;;;;;10412065;28;20235;-72
2022/08/17 03:23:46;;;;;;;4.70;4.20;;;;;;;;;;10411964;28;20236;-72
2022/08/17 03:28:47;;;;;;;5.23;4.00;;;;;;;;;;10412534;28;20224;-72
2022/08/17 03:33:49;;;;;;;4.73;4.27;;;;;;;;;;10410394;28;20240;-74
2022/08/17 03:38:50;;;;;;;5.50;4.40;;;;;;;;;;10410130;28;20213;-73
2022/08/17 03:43:51;;;;;;;5.03;4.23;;;;;;;;;;10416770;28;20933;-73
2022/08/17 03:59:38;;;;;;;6.00;5.40;;;;;;;;;;10411031;28;20669;-74
2022/08/17 04:04:39;;;;;;;8.43;5.50;;;;;;;;;;10404069;28;20231;-76
2022/08/17 04:09:41;;;;;;;7.63;5.50;;;;;;;;;;10414854;28;20224;-74
2022/08/17 04:14:42;;;;;;;7.47;6.63;;;;;;;;;;10409366;28;20225;-73
2022/08/17 04:19:43;;;;;;;6.97;6.27;;;;;;;;;;10412345;28;20255;-74
2022/08/17 04:24:44;;;;;;;11.27;6.33;;;;;;;;;;10412241;28;20220;-72
2022/08/17 04:29:45;;;;;;;9.67;6.10;;;;;;;;;;10408258;28;20315;-73
2022/08/17 04:34:49;;;;;;;7.87;6.20;;;;;;;;;;10406966;28;20220;-74
2022/08/17 04:42:05;;;;;;;8.73;6.10;;;;;;;;;;10404149;28;20280;-73
2022/08/17 04:45:11;;;;;;;10.83;6.17;;;;;;;;;;10407980;28;20244;-70
2022/08/17 04:50:12;;;;;;;8.30;5.40;;;;;;;;;;10403964;28;20680;-68
2022/08/17 04:55:14;;;;;;;6.90;5.37;;;;;;;;;;10400323;28;20200;-70
2022/08/17 05:00:15;;;;;;;8.00;5.10;;;;;;;;;;10401413;28;20558;-71
2022/08/17 05:05:27;;;;;;;8.63;5.53;;;;;;;;;;10400766;28;20213;-69
2022/08/17 05:10:29;;;;;;;5.30;4.90;;;;;;;;;;10410722;28;20223;-73
2022/08/17 05:15:30;;;;;;;10.20;4.93;;;;;;;;;;10405068;28;20216;-71
2022/08/17 05:20:32;;;;;;;8.07;5.80;;;;;;;;;;10404897;28;20228;-72
2022/08/17 05:25:35;;;;;;;6.73;5.80;;;;;;;;;;10393847;28;20232;-72
2022/08/17 05:30:36;;;;;;;10.83;5.57;;;;;;;;;;10405633;28;20254;-74
2022/08/17 05:35:41;;;;;;;7.80;5.60;;;;;;;;;;10406110;28;20217;-74
2022/08/17 05:40:43;;;;;;;10.23;5.87;;;;;;;;;;10409136;28;20240;-74
2022/08/17 05:46:02;;;;;;;7.57;5.53;;;;;;;;;;10406730;28;20236;-75
2022/08/17 05:51:16;;;;;;;7.87;5.83;;;;;;;;;;10395454;28;20286;-73
2022/08/17 05:56:21;;;;;;;7.47;5.50;;;;;;;;;;10402853;28;20220;-75
2022/08/17 06:01:40;;;;;;;6.50;5.30;;;;;;;;;;10404621;28;20227;-73
2022/08/17 06:06:45;;;;;;;15.80;7.33;;;;;;;;;;10411279;28;20216;-71
2022/08/17 06:11:51;;;;;;;7.03;5.83;;;;;;;;;;10412813;28;20221;-71
2022/08/17 06:16:55;;;;;;;9.13;5.50;;;;;;;;;;10407033;28;20266;-72
2022/08/17 06:21:57;;;;;;;6.47;5.77;;;;;;;;;;10385080;28;20252;-73
2022/08/17 06:27:05;;;;;;;7.20;5.47;;;;;;;;;;10411888;28;20205;-72
2022/08/17 06:32:08;;;;;;;9.53;5.77;;;;;;;;;;10411303;28;20220;-73
2022/08/17 06:37:13;;;;;;;6.00;5.50;;;;;;;;;;10411861;28;20223;-72
2022/08/17 06:42:20;;;;;;;7.50;5.57;;;;;;;;;;10410963;28;20255;-71
2022/08/17 06:47:28;;;;;;;6.90;5.40;;;;;;;;;;10401922;28;20224;-72
2022/08/17 06:52:35;;;;;;;6.47;5.87;;;;;;;;;;10403977;28;20227;-72
2022/08/17 06:57:37;;;;;;;8.00;5.53;;;;;;;;;;10403062;28;20335;-72
2022/08/17 07:02:41;;;;;;;6.67;5.53;;;;;;;;;;10411146;28;20256;-72
2022/08/17 07:08:00;;;;;;;8.43;5.50;;;;;;;;;;10407920;28;20224;-72
2022/08/17 07:13:13;;;;;;;8.40;5.63;;;;;;;;;;10403901;28;20288;-72
2022/08/17 07:18:14;;;;;;;6.87;5.70;;;;;;;;;;10401728;28;20691;-72
2022/08/17 07:23:16;;;;;;;8.57;4.87;;;;;;;;;;10392694;28;20225;-72
2022/08/17 07:28:21;;;;;;;7.33;5.10;;;;;;;;;;10409726;28;20221;-73
2022/08/17 07:33:24;;;;;;;9.70;5.10;;;;;;;;;;10411758;28;20228;-72
2022/08/17 07:38:27;;;;;;;6.73;5.13;;;;;;;;;;10417687;28;20212;-70
2022/08/17 07:43:28;;;;;;;6.43;5.10;;;;;;;;;;10418813;28;20225;-71
2022/08/17 07:48:29;;;;;;;7.50;5.40;;;;;;;;;;10415642;28;20216;-70
2022/08/17 07:53:30;;;;;;;6.93;5.40;;;;;;;;;;10412156;28;20219;-71
2022/08/17 07:58:31;;;;;;;9.50;5.40;;;;;;;;;;10411152;28;20236;-71
2022/08/17 08:03:33;;;;;;;9.13;5.47;;;;;;;;;;10402943;28;20232;-71
2022/08/17 08:08:41;;;;;;;9.53;5.67;;;;;;;;;;10395602;28;20209;-72
2022/08/17 08:13:44;;;;;;;6.00;5.40;;;;;;;;;;10411166;28;20264;-70
2022/08/17 08:18:47;;;;;;;8.93;5.43;;;;;;;;;;10399565;28;20225;-71
2022/08/17 08:23:48;;;;;;;6.67;6.00;;;;;;;;;;10397151;28;20565;-72
2022/08/17 08:29:00;;;;;;;6.93;6.23;;;;;;;;;;10398649;28;20693;-71
2022/08/17 08:34:23;;;;;;;11.50;8.00;;;;;;;;;;10394717;28;20224;-72
2022/08/17 08:39:32;;;;;;;8.33;7.00;;;;;;;;;;10408649;28;20212;-71
2022/08/17 08:44:36;;;;;;;8.17;7.37;;;;;;;;;;10406682;28;20225;-72
2022/08/17 08:49:37;;;;;;;7.43;6.73;;;;;;;;;;10410870;28;20735;-71
2022/08/17 08:54:44;;;;;;;9.03;7.03;;;;;;;;;;10388966;28;20264;-71
2022/08/17 08:59:55;;;;;;;10.53;7.73;;;;;;;;;;10397192;28;20224;-73
2022/08/17 09:05:06;;;;;;;9.60;6.93;;;;;;;;;;10410085;28;20231;-72
2022/08/17 09:10:14;;;;;;;10.50;7.00;;;;;;;;;;10407007;28;20273;-72
2022/08/17 09:15:26;;;;;;;10.53;6.33;;;;;;;;;;10387344;28;20587;-71
2022/08/17 09:20:30;;;;;;;8.57;6.50;;;;;;;;;;10410066;28;20300;-72
2022/08/17 09:25:32;;;;;;;14.10;8.80;;;;;;;;;;10401934;28;20212;-70
2022/08/17 09:30:53;;;;;;;11.53;8.63;;;;;;;;;;10411069;28;20227;-72
2022/08/17 09:35:58;;;;;;;11.33;8.10;;;;;;;;;;10397573;28;20307;-72
2022/08/17 09:41:20;;;;;;;9.00;6.87;;;;;;;;;;10408921;28;20563;-71
2022/08/17 09:46:29;;;;;;;10.07;7.03;;;;;;;;;;10411728;28;20231;-71
2022/08/17 09:51:32;;;;;;;9.73;7.20;;;;;;;;;;10392682;28;20234;-71
2022/08/17 09:56:33;;;;;;;9.33;5.90;;;;;;;;;;10403888;28;20239;-71
2022/08/17 10:01:42;;;;;;;9.33;5.97;;;;;;;;;;10410740;28;20222;-71
2022/08/17 10:07:03;;;;;;;8.53;6.30;;;;;;;;;;10410004;28;20228;-71
2022/08/17 10:12:18;;;;;;;10.47;5.87;;;;;;;;;;10401291;28;20228;-73
2022/08/17 10:17:37;;;;;;;10.83;6.90;;;;;;;;;;10407443;28;20365;-71
2022/08/17 10:27:59;;;;;;;9.80;6.63;;;;;;;;;;10408302;28;20216;-71
2022/08/17 10:33:02;;;;;;;9.87;5.70;;;;;;;;;;10408911;28;20213;-71
2022/08/17 10:38:22;;;;;;;9.67;6.70;;;;;;;;;;10409269;28;20208;-71
2022/08/17 10:43:32;;;;;;;10.13;6.50;;;;;;;;;;10401920;28;20231;-72
2022/08/17 10:48:35;;;;;;;8.67;5.63;;;;;;;;;;10410464;28;20304;-73
2022/08/17 10:53:37;;;;;;;8.83;6.67;;;;;;;;;;10404261;28;20256;-73
2022/08/17 10:58:57;;;;;;;7.10;5.93;;;;;;;;;;10406100;28;20226;-71
2022/08/17 11:04:02;;;;;;;8.30;6.13;;;;;;;;;;10409417;28;20223;-71
2022/08/17 11:09:14;;;;;;;9.97;6.47;;;;;;;;;;10414914;28;20324;-72
2022/08/17 11:14:22;;;;;;;7.63;6.97;;;;;;;;;;10415690;28;20223;-71
2022/08/17 11:19:33;;;;;;;9.63;6.37;;;;;;;;;;10398089;28;20223;-71
2022/08/17 11:24:38;;;;;;;7.37;5.47;;;;;;;;;;10415315;28;20298;-71
2022/08/17 11:29:51;;;;;;;7.97;6.17;;;;;;;;;;10416752;28;20223;-71
2022/08/17 11:35:04;;;;;;;8.67;6.80;;;;;;;;;;10407536;28;20246;-70
2022/08/17 11:40:14;;;;;;;7.43;6.03;;;;;;;;;;10392311;28;20883;-70
2022/08/17 11:45:34;;;;;;;6.17;5.40;;;;;;;;;;10413357;28;20556;-70
2022/08/17 11:56:11;;;;;;;7.27;5.00;;;;;;;;;;10411813;28;20232;-69
2022/08/17 12:01:21;;;;;;;9.87;5.03;;;;;;;;;;10415744;28;20307;-70
2022/08/17 12:06:33;;;;;;;6.73;4.33;;;;;;;;;;10413861;28;20305;-70
2022/08/17 12:11:47;;;;;;;4.93;4.40;;;;;;;;;;10416566;28;20244;-70
2022/08/17 12:17:17;;;;;;;7.10;4.40;;;;;;;;;;10407694;28;20269;-70
2022/08/17 12:22:22;;;;;;;5.83;3.97;;;;;;;;;;10393544;28;20227;-70
2022/08/17 12:27:25;;;;;;;4.97;3.80;;;;;;;;;;10413351;28;20227;-70
2022/08/17 12:32:31;;;;;;;4.40;3.50;;;;;;;;;;10412203;28;20231;-70
2022/08/17 12:37:49;;;;;;;4.30;3.67;;;;;;;;;;10397407;28;20276;-71
2022/08/17 12:42:57;;;;;;;4.13;3.47;;;;;;;;;;10415391;28;20216;-69
2022/08/17 12:48:01;;;;;;;4.63;4.20;;;;;;;;;;10404567;28;20758;-69
2022/08/17 12:53:02;;;;;;;6.50;3.87;;;;;;;;;;10393395;28;20266;-70
2022/08/17 12:58:04;;;;;;;4.93;4.40;;;;;;;;;;10411786;28;20302;-71
2022/08/17 13:03:08;;;;;;;5.33;4.13;;;;;;;;;;10408839;28;20279;-70
2022/08/17 13:08:19;;;;;;;6.07;3.90;;;;;;;;;;10412768;28;20702;-71
2022/08/17 13:13:25;;;;;;;4.67;4.03;;;;;;;;;;10406054;28;20266;-70
2022/08/17 13:18:38;;;;;;;6.23;3.77;;;;;;;;;;10406742;28;20222;-71
2022/08/17 13:23:40;;;;;;;7.03;4.00;;;;;;;;;;10409902;28;20491;-70
2022/08/17 13:28:50;;;;;;;4.93;3.60;;;;;;;;;;10405656;28;20294;-71
2022/08/17 13:33:51;;;;;;;6.67;4.23;;;;;;;;;;10408414;28;20237;-71
2022/08/17 13:39:04;;;;;;;4.50;3.70;;;;;;;;;;10408214;28;20601;-72
2022/08/17 13:44:38;;;;;;;5.43;3.93;;;;;;;;;;10410759;28;20379;-71
2022/08/17 13:49:39;;;;;;;6.33;4.20;;;;;;;;;;10374811;28;20281;-71
2022/08/17 13:54:40;;;;;;;6.50;4.17;;;;;;;;;;10406647;28;20635;-71
2022/08/17 13:59:43;;;;;;;6.90;3.67;;;;;;;;;;10401026;28;20242;-71
2022/08/17 14:04:44;;;;;;;5.60;4.20;;;;;;;;;;10409529;28;20327;-71
2022/08/17 14:09:49;;;;;;;4.23;3.80;;;;;;;;;;10410693;28;20220;-71
2022/08/17 14:14:50;;;;;;;5.63;3.23;;;;;;;;;;10412001;28;20219;-71
2022/08/17 14:19:52;;;;;;;4.07;3.40;;;;;;;;;;10409939;28;20225;-71
2022/08/17 14:24:53;;;;;;;3.97;3.10;;;;;;;;;;10407558;28;20268;-70
2022/08/17 14:29:55;;;;;;;3.30;3.00;;;;;;;;;;10408749;28;20234;-70
2022/08/17 14:34:56;;;;;;;3.67;3.20;;;;;;;;;;10411309;28;20706;-72
2022/08/17 14:39:59;;;;;;;4.53;3.00;;;;;;;;;;10406201;28;20220;-71
2022/08/17 14:45:04;;;;;;;4.07;3.40;;;;;;;;;;10408252;28;20219;-71
2022/08/17 14:50:08;;;;;;;3.87;3.33;;;;;;;;;;10407790;28;20233;-70
2022/08/17 14:55:11;;;;;;;3.37;3.07;;;;;;;;;;10408566;28;20310;-72
2022/08/17 15:00:15;;;;;;;3.27;2.93;;;;;;;;;;10406642;28;20253;-72
2022/08/17 15:05:17;;;;;;;3.17;2.87;;;;;;;;;;10390132;28;20244;-70
2022/08/17 15:10:21;;;;;;;5.50;3.00;;;;;;;;;;10408774;28;20222;-71
2022/08/17 15:15:22;;;;;;;3.10;2.90;;;;;;;;;;10390746;28;20324;-71
2022/08/17 15:20:26;;;;;;;4.23;3.60;;;;;;;;;;10404309;28;20186;-71
2022/08/17 15:25:29;;;;;;;3.40;3.10;;;;;;;;;;10407166;28;20704;-71
2022/08/17 15:30:30;;;;;;;4.53;3.40;;;;;;;;;;10406493;28;20223;-72
2022/08/17 15:35:32;;;;;;;4.27;3.30;;;;;;;;;;10409196;28;20249;-72
2022/08/17 15:40:37;;;;;;;3.70;3.40;;;;;;;;;;10407402;28;20224;-72
2022/08/17 15:45:39;;;;;;;3.60;3.30;;;;;;;;;;10409942;28;20234;-70
2022/08/17 15:50:43;;;;;;;3.70;3.30;;;;;;;;;;10389069;28;20221;-70
2022/08/17 15:55:45;;;;;;;5.73;4.37;;;;;;;;;;10394584;28;20312;-71
2022/08/17 16:00:46;;;;;;;4.00;3.60;;;;;;;;;;10415272;28;20230;-70
2022/08/17 16:05:49;;;;;;;5.83;3.63;;;;;;;;;;10412166;28;20720;-72
2022/08/17 16:10:50;;;;;;;3.80;3.50;;;;;;;;;;10414573;28;20336;-72
2022/08/17 16:15:51;;;;;;;5.17;3.63;;;;;;;;;;10415396;28;20246;-72
2022/08/17 16:20:52;;;;;;;4.60;4.13;;;;;;;;;;10395015;28;20225;-70
2022/08/17 16:25:53;;;;;;;8.20;3.70;;;;;;;;;;10413325;28;20229;-68
2022/08/17 16:30:54;;;;;;;4.93;3.47;;;;;;;;;;10396346;28;20230;-68
2022/08/17 16:35:55;;;;;;;3.70;3.40;;;;;;;;;;10411165;28;20770;-70
2022/08/17 16:40:57;;;;;;;4.20;3.80;;;;;;;;;;10409224;28;20314;-70
2022/08/17 16:45:59;;;;;;;5.67;3.83;;;;;;;;;;10411385;28;20230;-70
2022/08/17 16:51:00;;;;;;;5.73;3.90;;;;;;;;;;10398303;28;20278;-70
2022/08/17 16:56:02;;;;;;;4.20;3.37;;;;;;;;;;10406514;28;20238;-72
2022/08/17 17:01:04;;;;;;;4.00;3.60;;;;;;;;;;10390754;28;20286;-72
2022/08/17 17:06:17;;;;;;;4.50;3.93;;;;;;;;;;10393919;28;20236;-71
2022/08/17 17:11:22;;;;;;;4.87;4.00;;;;;;;;;;10399080;28;20219;-71
2022/08/17 17:16:44;;;;;;;4.70;4.03;;;;;;;;;;10397766;28;20317;-71
2022/08/17 17:22:02;;;;;;;4.80;4.00;;;;;;;;;;10405973;28;20219;-71
2022/08/17 17:27:17;;;;;;;5.70;3.73;;;;;;;;;;10390592;28;20262;-71
2022/08/17 17:32:27;;;;;;;4.20;3.70;;;;;;;;;;10389123;28;20262;-72
2022/08/17 17:37:31;;;;;;;5.03;3.77;;;;;;;;;;10396124;28;20648;-71
2022/08/17 17:42:33;;;;;;;5.70;4.03;;;;;;;;;;10400679;28;20272;-71
2022/08/17 17:47:34;;;;;;;7.10;4.07;;;;;;;;;;10397376;28;20230;-72
2022/08/17 17:52:39;;;;;;;5.73;4.10;;;;;;;;;;10391457;28;20223;-73
2022/08/17 17:58:13;;;;;;;5.30;4.40;;;;;;;;;;10390855;28;20289;-72
2022/08/17 18:03:24;;;;;;;4.20;3.80;;;;;;;;;;10372403;28;20321;-71
2022/08/17 18:08:25;;;;;;;5.13;4.13;;;;;;;;;;10403827;28;20277;-72
2022/08/17 18:13:35;;;;;;;14.63;4.50;;;;;;;;;;10398659;28;20226;-72
2022/08/17 18:18:38;;;;;;;4.10;3.70;;;;;;;;;;10395765;28;20712;-72
2022/08/17 18:23:45;;;;;;;5.10;4.60;;;;;;;;;;10392720;28;20284;-72
2022/08/17 18:28:50;;;;;;;6.20;4.13;;;;;;;;;;10399586;28;20221;-72
2022/08/17 18:33:52;;;;;;;7.13;4.70;;;;;;;;;;10406824;28;20233;-72
2022/08/17 18:39:08;;;;;;;5.27;4.17;;;;;;;;;;10398435;28;20217;-71
2022/08/17 18:44:18;;;;;;;4.73;4.33;;;;;;;;;;10385985;28;20233;-71
2022/08/17 18:49:28;;;;;;;4.93;4.37;;;;;;;;;;10406667;28;20312;-71
2022/08/17 18:54:29;;;;;;;5.30;4.80;;;;;;;;;;10394855;28;20236;-70
2022/08/17 18:59:51;;;;;;;5.53;5.00;;;;;;;;;;10400875;28;20627;-73
2022/08/17 19:05:12;;;;;;;5.40;4.60;;;;;;;;;;10396539;28;20227;-71
2022/08/17 19:10:27;;;;;;;6.93;4.90;;;;;;;;;;10400831;28;20212;-71
2022/08/17 19:15:36;;;;;;;9.67;4.60;;;;;;;;;;10395764;28;20953;-70
2022/08/17 19:20:41;;;;;;;5.87;5.00;;;;;;;;;;10397557;28;20222;-72
2022/08/17 19:25:45;;;;;;;8.13;5.30;;;;;;;;;;10397155;28;20221;-71
2022/08/17 19:30:46;;;;;;;7.37;5.40;;;;;;;;;;10408690;28;20594;-70
2022/08/17 19:35:57;;;;;;;7.83;5.37;;;;;;;;;;10401708;28;20237;-72
2022/08/17 19:41:01;;;;;;;6.13;5.50;;;;;;;;;;10401830;28;20217;-71
2022/08/17 19:46:16;;;;;;;6.07;5.57;;;;;;;;;;10409958;28;20308;-71
2022/08/17 19:51:33;;;;;;;5.80;5.30;;;;;;;;;;10399162;28;20231;-71
2022/08/17 19:56:41;;;;;;;6.03;5.47;;;;;;;;;;10396384;28;20236;-71
2022/08/17 20:01:56;;;;;;;6.30;5.03;;;;;;;;;;10393465;28;20708;-70
2022/08/17 20:07:18;;;;;;;6.70;6.10;;;;;;;;;;10411240;28;20696;-73
2022/08/17 20:12:20;;;;;;;6.93;5.97;;;;;;;;;;10412037;28;20220;-72
2022/08/17 20:17:30;;;;;;;7.00;6.30;;;;;;;;;;10406667;28;20227;-73
2022/08/17 20:22:41;;;;;;;6.50;5.90;;;;;;;;;;10408179;28;20231;-71
2022/08/17 20:27:51;;;;;;;10.97;6.63;;;;;;;;;;10407698;28;20232;-71
2022/08/17 20:32:56;;;;;;;8.37;7.30;;;;;;;;;;10413592;28;20288;-68
2022/08/17 20:37:57;;;;;;;7.20;6.50;;;;;;;;;;10398908;28;20252;-75
2022/08/17 20:43:18;;;;;;;8.57;6.50;;;;;;;;;;10396304;28;20217;-74
2022/08/17 20:48:20;;;;;;;10.10;6.40;;;;;;;;;;10403405;28;20291;-73
2022/08/17 20:53:47;;;;;;;9.43;6.23;;;;;;;;;;10399622;28;20651;-74
2022/08/17 20:58:50;;;;;;;9.67;6.70;;;;;;;;;;10378096;28;20229;-73
2022/08/17 21:03:52;;;;;;;8.57;6.80;;;;;;;;;;10399737;28;20223;-73
2022/08/17 21:08:57;;;;;;;9.13;6.23;;;;;;;;;;10375837;28;20227;-74
2022/08/17 21:14:17;;;;;;;6.93;6.27;;;;;;;;;;10406233;28;20224;-74
2022/08/17 21:19:29;;;;;;;7.30;6.60;;;;;;;;;;10406337;28;20223;-74
2022/08/17 21:24:46;;;;;;;7.00;6.30;;;;;;;;;;10407782;28;20221;-80
2022/08/17 21:30:11;;;;;;;7.30;6.60;;;;;;;;;;10416142;28;20653;-77
2022/08/17 21:35:21;;;;;;;6.10;5.60;;;;;;;;;;10389511;28;20306;-74
2022/08/17 21:40:26;;;;;;;9.03;7.37;;;;;;;;;;10392834;28;20272;-75
2022/08/17 21:45:35;;;;;;;6.60;5.97;;;;;;;;;;10392663;28;20229;-74
2022/08/17 21:50:37;;;;;;;7.47;6.60;;;;;;;;;;10404982;28;20304;-72
2022/08/17 21:55:39;;;;;;;8.63;6.77;;;;;;;;;;10403359;28;20234;-72
2022/08/17 22:00:40;;;;;;;8.07;7.00;;;;;;;;;;10403993;28;20232;-74
2022/08/17 22:05:41;;;;;;;9.43;7.07;;;;;;;;;;10402199;28;20219;-74
2022/08/17 22:10:43;;;;;;;8.33;6.97;;;;;;;;;;10403544;28;20231;-73
2022/08/17 22:15:46;;;;;;;7.43;6.73;;;;;;;;;;10412584;28;20239;-74
2022/08/17 22:20:52;;;;;;;8.90;7.53;;;;;;;;;;10400624;28;20248;-75
2022/08/17 22:25:58;;;;;;;8.37;7.47;;;;;;;;;;10403432;28;20602;-76
2022/08/17 22:31:02;;;;;;;8.50;7.57;;;;;;;;;;10409587;28;20695;-74
2022/08/17 22:36:13;;;;;;;9.20;8.03;;;;;;;;;;10411169;28;20232;-74
2022/08/17 22:41:33;;;;;;;8.90;7.37;;;;;;;;;;10393268;28;20402;-74
2022/08/17 22:46:42;;;;;;;8.03;7.23;;;;;;;;;;10417487;28;20220;-75
2022/08/17 22:51:43;;;;;;;8.10;7.30;;;;;;;;;;10424564;28;20221;-74
2022/08/17 23:02:23;;;;;;;10.13;7.80;;;;;;;;;;10414877;28;20595;-75
2022/08/17 23:07:24;;;;;;;9.20;7.37;;;;;;;;;;10410668;28;20228;-75
2022/08/17 23:12:26;;;;;;;8.83;7.93;;;;;;;;;;10400933;28;20661;-74
2022/08/17 23:17:33;;;;;;;8.30;7.50;;;;;;;;;;10411271;28;20342;-75
2022/08/17 23:22:36;;;;;;;7.57;6.83;;;;;;;;;;10408964;28;20217;-74
2022/08/17 23:27:37;;;;;;;7.90;6.87;;;;;;;;;;10411598;28;20225;-74
2022/08/17 23:32:39;;;;;;;9.10;7.47;;;;;;;;;;10395822;28;20780;-74
2022/08/17 23:37:40;;;;;;;7.83;7.00;;;;;;;;;;10392108;28;20209;-74
2022/08/17 23:42:41;;;;;;;8.60;7.80;;;;;;;;;;10410455;28;20222;-75
2022/08/17 23:47:42;;;;;;;7.87;7.17;;;;;;;;;;10415206;28;20246;-75
2022/08/17 23:52:45;;;;;;;7.83;7.03;;;;;;;;;;10421189;28;20247;-75
2022/08/17 23:57:49;;;;;;;8.50;7.70;;;;;;;;;;10427999;28;20263;-75
